createdAt,value
2019-03-27T00:02:22.823Z,100791.78
2019-03-27T00:04:55.678Z,100791.78
2019-03-27T00:07:26.748Z,100792.16
2019-03-27T00:09:57.625Z,100778.94
2019-03-27T00:12:28.500Z,100778.94
2019-03-27T00:15:11.855Z,100787.34
2019-03-27T00:17:31.881Z,100787.34
2019-03-27T00:20:02.938Z,100788.43
2019-03-27T00:22:36.900Z,100793.23
2019-03-27T00:25:11.028Z,100783.84
2019-03-27T00:27:41.738Z,100783.84
2019-03-27T00:30:14.050Z,100785.23
2019-03-27T00:32:44.846Z,100785.77
2019-03-27T00:35:18.776Z,100794.02
2019-03-27T00:37:49.533Z,100790.41
2019-03-27T00:40:20.468Z,100781.39
2019-03-27T00:42:53.131Z,100786.44
2019-03-27T00:45:27.015Z,100786.44
2019-03-27T00:47:57.938Z,100784.81
2019-03-27T00:50:29.048Z,100786.88
2019-03-27T00:53:00.260Z,100788.71
2019-03-27T00:55:31.512Z,100790.25
2019-03-27T00:58:02.368Z,100787.58
2019-03-27T01:01:15.973Z,100792.94
2019-03-27T01:03:46.967Z,100790.66
2019-03-27T01:06:17.751Z,100794.31
2019-03-27T01:08:48.781Z,100810.17
2019-03-27T01:11:19.779Z,100810.17
2019-03-27T01:13:50.594Z,100800.45
2019-03-27T01:16:21.435Z,100810.62
2019-03-27T01:18:52.322Z,100810.62
2019-03-27T01:21:23.235Z,100808.70
2019-03-27T01:23:54.218Z,100812.30
2019-03-27T01:26:25.516Z,100816.66
2019-03-27T01:28:56.166Z,100815.97
2019-03-27T01:31:27.248Z,100813.69
2019-03-27T01:33:58.035Z,100813.69
2019-03-27T01:36:28.926Z,100820.03
2019-03-27T01:38:59.979Z,100817.27
2019-03-27T01:41:30.733Z,100821.30
2019-03-27T01:44:01.603Z,100827.37
2019-03-27T01:46:32.414Z,100832.85
2019-03-27T01:52:08.705Z,100819.39
2019-03-27T01:54:39.426Z,100821.77
2019-03-27T01:57:10.827Z,100820.99
2019-03-27T01:59:41.825Z,100812.52
2019-03-27T02:02:13.999Z,100807.69
2019-03-27T02:04:44.663Z,100814.59
2019-03-27T02:07:15.561Z,100810.13
2019-03-27T02:09:46.605Z,100815.03
2019-03-27T02:12:17.278Z,100815.11
2019-03-27T02:14:48.310Z,100819.86
2019-03-27T02:17:19.355Z,100828.19
2019-03-27T02:19:50.486Z,100826.50
2019-03-27T02:22:21.568Z,100825.27
2019-03-27T02:24:52.591Z,100827.02
2019-03-27T02:27:23.819Z,100816.84
2019-03-27T02:29:55.080Z,100820.63
2019-03-27T02:32:26.019Z,100821.84
2019-03-27T02:34:57.280Z,100821.22
2019-03-27T02:37:28.579Z,100827.72
2019-03-27T02:39:59.662Z,100832.44
2019-03-27T02:42:30.643Z,100835.12
2019-03-27T02:45:01.893Z,100842.56
2019-03-27T02:47:32.900Z,100845.36
2019-03-27T02:50:04.071Z,100847.92
2019-03-27T02:52:35.150Z,100845.09
2019-03-27T02:55:06.104Z,100846.81
2019-03-27T02:57:37.954Z,100845.97
2019-03-27T03:00:10.449Z,100847.19
2019-03-27T03:02:41.841Z,100849.80
2019-03-27T03:05:12.982Z,100852.41
2019-03-27T03:07:45.223Z,100841.24
2019-03-27T03:10:17.871Z,100847.22
2019-03-27T03:12:48.931Z,100846.52
2019-03-27T03:15:25.039Z,100851.39
2019-03-27T03:17:56.030Z,100853.44
2019-03-27T03:20:27.152Z,100862.94
2019-03-27T03:22:58.309Z,100858.05
2019-03-27T03:25:29.513Z,100852.48
2019-03-27T03:28:00.578Z,100860.72
2019-03-27T03:30:31.701Z,100857.97
2019-03-27T03:33:02.919Z,100862.42
2019-03-27T03:35:34.072Z,100862.02
2019-03-27T03:38:04.979Z,100866.99
2019-03-27T03:40:36.162Z,100874.56
2019-03-27T03:43:07.444Z,100873.82
2019-03-27T03:45:38.451Z,100872.63
2019-03-27T03:48:15.945Z,100868.88
2019-03-27T03:50:46.980Z,100867.73
2019-03-27T03:53:18.293Z,100875.23
2019-03-27T03:55:49.675Z,100877.41
2019-03-27T03:58:20.899Z,100874.33
2019-03-27T04:00:52.066Z,100880.42
2019-03-27T04:03:26.762Z,100879.27
2019-03-27T04:05:58.540Z,100882.30
2019-03-27T04:08:29.614Z,100879.52
2019-03-27T04:11:00.841Z,100885.91
2019-03-27T04:13:31.740Z,100887.34
2019-03-27T04:16:02.773Z,100890.83
2019-03-27T04:18:33.965Z,100885.91
2019-03-27T04:21:04.908Z,100889.94
2019-03-27T04:23:36.020Z,100892.39
2019-03-27T04:26:10.407Z,100883.45
2019-03-27T04:28:42.318Z,100893.98
2019-03-27T04:31:13.368Z,100891.17
2019-03-27T04:33:44.532Z,100894.28
2019-03-27T04:36:15.633Z,100892.84
2019-03-27T04:38:46.887Z,100890.03
2019-03-27T04:41:17.889Z,100891.33
2019-03-27T04:43:49.116Z,100887.39
2019-03-27T04:46:20.119Z,100892.81
2019-03-27T04:48:51.082Z,100895.69
2019-03-27T04:51:22.285Z,100896.47
2019-03-27T04:53:53.431Z,100907.13
2019-03-27T04:56:24.399Z,100912.13
2019-03-27T04:58:55.388Z,100913.14
2019-03-27T05:01:26.712Z,100909.50
2019-03-27T05:03:57.710Z,100912.55
2019-03-27T05:06:28.976Z,100915.84
2019-03-27T05:09:00.524Z,100913.25
2019-03-27T05:11:32.078Z,100914.63
2019-03-27T05:14:03.316Z,100922.05
2019-03-27T05:16:35.156Z,100922.45
2019-03-27T05:19:06.426Z,100922.61
2019-03-27T05:21:37.445Z,100920.86
2019-03-27T05:24:08.463Z,100922.86
2019-03-27T05:26:39.619Z,100923.64
2019-03-27T05:29:10.648Z,100923.81
2019-03-27T05:31:41.711Z,100922.92
2019-03-27T05:34:12.935Z,100934.52
2019-03-27T05:36:44.873Z,100931.69
2019-03-27T05:39:16.013Z,100930.24
2019-03-27T05:41:47.046Z,100930.24
2019-03-27T05:44:17.994Z,100929.49
2019-03-27T05:46:48.928Z,100936.81
2019-03-27T05:49:20.301Z,100940.66
2019-03-27T05:51:51.504Z,100932.84
2019-03-27T05:54:22.637Z,100935.59
2019-03-27T05:56:53.645Z,100935.59
2019-03-27T05:59:24.664Z,100939.20
2019-03-27T06:01:56.098Z,100945.02
2019-03-27T06:04:27.186Z,100945.02
2019-03-27T06:06:58.200Z,100941.98
2019-03-27T06:09:29.647Z,100946.37
2019-03-27T06:12:00.644Z,100954.32
2019-03-27T06:14:31.786Z,100951.56
2019-03-27T06:17:02.978Z,100956.03
2019-03-27T06:19:34.030Z,100959.54
2019-03-27T06:22:07.767Z,100952.00
2019-03-27T06:24:41.767Z,100946.59
2019-03-27T06:27:12.862Z,100950.43
2019-03-27T06:29:44.212Z,100951.84
2019-03-27T06:32:15.031Z,100948.16
2019-03-27T06:34:46.002Z,100959.17
2019-03-27T06:37:16.985Z,100957.04
2019-03-27T06:39:47.723Z,100955.33
2019-03-27T06:42:18.679Z,100961.30
2019-03-27T06:44:50.659Z,100959.96
2019-03-27T06:47:21.485Z,100955.83
2019-03-27T06:49:52.602Z,100954.77
2019-03-27T06:52:23.755Z,100956.02
2019-03-27T06:54:54.621Z,100959.89
2019-03-27T06:57:25.672Z,100954.00
2019-03-27T06:59:56.482Z,100953.15
2019-03-27T07:02:28.976Z,100958.29
2019-03-27T07:05:00.719Z,100957.30
2019-03-27T07:07:31.468Z,100961.05
2019-03-27T07:10:02.278Z,100954.72
2019-03-27T07:12:33.388Z,100969.06
2019-03-27T07:15:04.813Z,100965.42
2019-03-27T07:17:35.592Z,100957.79
2019-03-27T07:20:07.684Z,100961.28
2019-03-27T07:22:38.880Z,100955.64
2019-03-27T07:25:10.548Z,100962.36
2019-03-27T07:27:41.524Z,100962.95
2019-03-27T07:30:13.340Z,100974.53
2019-03-27T07:32:44.310Z,100976.45
2019-03-27T07:35:15.416Z,100980.61
2019-03-27T07:37:46.518Z,100985.41
2019-03-27T07:40:17.446Z,100990.69
2019-03-27T07:42:48.268Z,100985.33
2019-03-27T07:45:19.458Z,100993.27
2019-03-27T07:47:50.073Z,100989.53
2019-03-27T07:50:20.918Z,100986.32
2019-03-27T07:52:51.971Z,100989.53
2019-03-27T07:55:22.862Z,100984.86
2019-03-27T07:57:53.910Z,100980.41
2019-03-27T08:00:25.146Z,100989.37
2019-03-27T08:02:55.920Z,100975.53
2019-03-27T08:05:27.131Z,100990.60
2019-03-27T08:07:57.996Z,100994.72
2019-03-27T08:10:29.408Z,100993.58
2019-03-27T08:13:00.517Z,100993.59
2019-03-27T08:15:31.615Z,101005.73
2019-03-27T08:18:02.549Z,100993.61
2019-03-27T08:20:33.437Z,101012.47
2019-03-27T08:23:05.817Z,101005.78
2019-03-27T08:25:37.011Z,101004.45
2019-03-27T08:28:08.039Z,101006.91
2019-03-27T08:30:39.104Z,101000.31
2019-03-27T08:33:10.392Z,101006.73
2019-03-27T08:35:41.239Z,101005.80
2019-03-27T08:38:15.074Z,101000.08
2019-03-27T08:40:46.342Z,101003.17
2019-03-27T08:43:21.456Z,101009.39
2019-03-27T08:45:50.105Z,101006.19
2019-03-27T08:48:21.405Z,101007.52
2019-03-27T08:50:52.585Z,101009.97
2019-03-27T08:53:23.912Z,101012.86
2019-03-27T08:55:54.905Z,101007.88
2019-03-27T08:58:25.821Z,101006.47
2019-03-27T09:00:57.273Z,101000.36
2019-03-27T09:03:29.450Z,101002.91
2019-03-27T09:06:00.729Z,101001.28
2019-03-27T09:08:39.078Z,100991.88
2019-03-27T09:11:10.064Z,100998.00
2019-03-27T09:13:41.240Z,100997.44
2019-03-27T09:16:12.248Z,100999.83
2019-03-27T09:18:43.195Z,100994.31
2019-03-27T09:21:14.255Z,101006.55
2019-03-27T09:23:45.874Z,101010.59
2019-03-27T09:26:17.609Z,101012.41
2019-03-27T09:28:48.553Z,101013.94
2019-03-27T09:31:19.504Z,101010.11
2019-03-27T09:33:50.472Z,101017.30
2019-03-27T09:36:22.647Z,101015.91
2019-03-27T09:38:53.700Z,101009.06
2019-03-27T09:41:24.697Z,101007.20
2019-03-27T09:43:57.009Z,101025.77
2019-03-27T09:46:28.041Z,101011.30
2019-03-27T09:48:59.173Z,101024.16
2019-03-27T09:51:30.163Z,101019.34
2019-03-27T09:54:01.149Z,101020.78
2019-03-27T09:56:32.190Z,101024.73
2019-03-27T09:59:05.945Z,101025.68
2019-03-27T10:01:35.842Z,101028.44
2019-03-27T10:04:06.897Z,101029.53
2019-03-27T10:06:38.122Z,101024.72
2019-03-27T10:09:09.579Z,101023.76
2019-03-27T10:11:41.645Z,101033.59
2019-03-27T10:14:12.602Z,101030.10
2019-03-27T10:16:43.495Z,101022.17
2019-03-27T10:19:14.444Z,101028.02
2019-03-27T10:21:45.398Z,101026.09
2019-03-27T10:24:16.394Z,101029.44
2019-03-27T10:26:47.864Z,101028.86
2019-03-27T10:29:18.939Z,101034.75
2019-03-27T10:31:49.800Z,101032.94
2019-03-27T10:34:20.872Z,101032.83
2019-03-27T10:36:52.071Z,101031.16
2019-03-27T10:39:23.102Z,101029.67
2019-03-27T10:41:55.121Z,101019.72
2019-03-27T10:44:26.125Z,101027.98
2019-03-27T10:46:57.657Z,101025.04
2019-03-27T10:49:28.593Z,101025.00
2019-03-27T10:51:59.471Z,101026.13
2019-03-27T10:54:30.555Z,101026.50
2019-03-27T10:57:01.699Z,101025.63
2019-03-27T10:59:33.578Z,101034.48
2019-03-27T11:02:04.951Z,101031.66
2019-03-27T11:04:35.832Z,101035.00
2019-03-27T11:07:06.925Z,101026.30
2019-03-27T11:09:37.960Z,101028.01
2019-03-27T11:12:09.974Z,101026.20
2019-03-27T11:14:41.069Z,101027.33
2019-03-27T11:17:12.165Z,101026.59
2019-03-27T11:19:43.012Z,101028.12
2019-03-27T11:22:15.029Z,101017.13
2019-03-27T11:24:46.284Z,101008.91
2019-03-27T11:27:17.192Z,101008.27
2019-03-27T11:29:48.042Z,101012.44
2019-03-27T11:32:19.073Z,101010.45
2019-03-27T11:34:50.012Z,101006.80
2019-03-27T11:37:21.185Z,101013.05
2019-03-27T11:39:52.318Z,101012.20
2019-03-27T11:42:23.178Z,101015.04
2019-03-27T11:44:53.863Z,101018.08
2019-03-27T11:47:24.719Z,101013.03
2019-03-27T11:49:56.063Z,101024.64
2019-03-27T11:52:29.525Z,101024.08
2019-03-27T11:54:59.421Z,101024.88
2019-03-27T11:57:31.386Z,101027.78
2019-03-27T12:00:02.748Z,101029.84
2019-03-27T12:02:33.693Z,101024.20
2019-03-27T12:05:05.549Z,101023.44
2019-03-27T12:07:37.012Z,101017.63
2019-03-27T12:10:08.313Z,101015.42
2019-03-27T12:12:39.292Z,101019.98
2019-03-27T12:15:10.717Z,101024.39
2019-03-27T12:17:42.520Z,101014.19
2019-03-27T12:20:13.937Z,101020.22
2019-03-27T12:22:57.325Z,101019.25
2019-03-27T12:25:18.021Z,101022.95
2019-03-27T12:27:49.162Z,101023.00
2019-03-27T12:30:20.384Z,101015.13
2019-03-27T12:32:51.709Z,101016.16
2019-03-27T12:35:22.959Z,101018.73
2019-03-27T12:37:54.044Z,101023.75
2019-03-27T12:40:25.298Z,101028.25
2019-03-27T12:42:56.972Z,101032.23
2019-03-27T12:45:27.915Z,101037.00
2019-03-27T12:47:58.981Z,101033.78
2019-03-27T12:50:30.183Z,101050.84
2019-03-27T12:53:01.362Z,101048.22
2019-03-27T12:55:32.276Z,101053.73
2019-03-27T12:58:07.094Z,101052.35
2019-03-27T13:00:38.410Z,101054.39
2019-03-27T13:03:09.613Z,101052.77
2019-03-27T13:05:40.842Z,101059.23
2019-03-27T13:08:12.289Z,101059.58
2019-03-27T13:10:43.740Z,101067.13
2019-03-27T13:13:16.091Z,101066.14
2019-03-27T13:15:48.161Z,101086.05
2019-03-27T13:18:19.427Z,101086.12
2019-03-27T13:20:55.546Z,101088.94
2019-03-27T13:23:26.523Z,101083.20
2019-03-27T13:25:57.759Z,101084.32
2019-03-27T13:28:29.065Z,101089.55
2019-03-27T13:31:03.240Z,101088.84
2019-03-27T13:33:34.424Z,101084.58
2019-03-27T13:36:08.551Z,101086.65
2019-03-27T13:38:39.558Z,101079.27
2019-03-27T13:41:10.680Z,101082.27
2019-03-27T13:43:41.822Z,101085.05
2019-03-27T13:46:12.831Z,101084.30
2019-03-27T13:48:43.810Z,101084.88
2019-03-27T13:51:14.738Z,101085.53
2019-03-27T13:53:46.097Z,101085.40
2019-03-27T13:56:16.945Z,101085.13
2019-03-27T13:58:48.348Z,101080.02
2019-03-27T14:01:19.432Z,101076.38
2019-03-27T14:03:50.564Z,101080.76
2019-03-27T14:06:21.915Z,101080.94
2019-03-27T14:08:53.215Z,101077.69
2019-03-27T14:11:24.170Z,101078.31
2019-03-27T14:13:55.275Z,101083.81
2019-03-27T14:16:27.324Z,101125.73
2019-03-27T14:18:58.340Z,101150.34
2019-03-27T14:21:29.678Z,101139.13
2019-03-27T14:24:00.608Z,101140.45
2019-03-27T14:26:44.360Z,101175.58
2019-03-27T14:29:04.305Z,101175.54
2019-03-27T14:31:35.742Z,101183.17
2019-03-27T14:34:06.813Z,101171.70
2019-03-27T14:36:38.124Z,101176.66
2019-03-27T14:39:09.840Z,101182.34
2019-03-27T14:41:41.297Z,101186.29
2019-03-27T14:44:12.328Z,101193.73
2019-03-27T14:46:43.425Z,101193.73
2019-03-27T14:49:14.469Z,101203.96
2019-03-27T14:51:45.497Z,101203.96
2019-03-27T14:54:16.265Z,101191.86
2019-03-27T14:56:47.218Z,101191.86
2019-03-27T14:59:18.475Z,101210.37
2019-03-27T15:01:49.884Z,101211.22
2019-03-27T15:04:20.910Z,101209.85
2019-03-27T15:06:51.938Z,101209.85
2019-03-27T15:09:22.787Z,101226.36
2019-03-27T15:11:53.614Z,101226.36
2019-03-27T15:14:24.466Z,101226.53
2019-03-27T15:16:56.313Z,101240.13
2019-03-27T15:19:27.406Z,101233.59
2019-03-27T15:21:58.269Z,101242.94
2019-03-27T15:24:29.378Z,101253.55
2019-03-27T15:27:00.333Z,101236.57
2019-03-27T15:29:31.804Z,101243.48
2019-03-27T15:32:03.359Z,101244.64
2019-03-27T15:34:34.280Z,101247.11
2019-03-27T15:37:05.587Z,101256.20
2019-03-27T15:39:36.435Z,101256.93
2019-03-27T15:42:09.259Z,101258.61
2019-03-27T15:44:40.281Z,101258.03
2019-03-27T15:47:11.257Z,101258.03
2019-03-27T15:49:42.136Z,101270.02
2019-03-27T15:52:14.168Z,101266.48
2019-03-27T15:54:44.967Z,101271.24
2019-03-27T15:57:16.015Z,101275.59
2019-03-27T15:59:48.860Z,101272.20
2019-03-27T16:02:20.406Z,101276.52
2019-03-27T16:04:51.983Z,101286.27
2019-03-27T16:07:23.104Z,101286.06
2019-03-27T16:09:53.994Z,101288.80
2019-03-27T16:12:25.011Z,101284.39
2019-03-27T16:14:56.333Z,101294.13
2019-03-27T16:17:28.008Z,101296.39
2019-03-27T16:19:59.283Z,101299.58
2019-03-27T16:22:30.735Z,101303.03
2019-03-27T16:25:01.634Z,101303.95
2019-03-27T16:27:32.492Z,101312.27
2019-03-27T16:30:03.477Z,101319.63
2019-03-27T16:32:34.230Z,101328.67
2019-03-27T16:35:05.667Z,101329.31
2019-03-27T16:37:36.633Z,101328.54
2019-03-27T16:40:10.095Z,101331.58
2019-03-27T16:42:41.243Z,101331.93
2019-03-27T16:45:12.623Z,101335.75
2019-03-27T16:47:45.383Z,101335.69
2019-03-27T16:50:16.941Z,101342.44
2019-03-27T16:52:47.772Z,101348.30
2019-03-27T16:55:18.565Z,101354.93
2019-03-27T16:57:51.416Z,101362.42
2019-03-27T17:00:22.644Z,101360.33
2019-03-27T17:02:53.894Z,101369.74
2019-03-27T17:05:24.878Z,101373.93
2019-03-27T17:07:55.899Z,101378.14
2019-03-27T17:10:28.019Z,101385.38
2019-03-27T17:12:59.160Z,101384.48
2019-03-27T17:15:30.184Z,101391.17
2019-03-27T17:18:01.186Z,101399.11
2019-03-27T17:20:32.265Z,101397.94
2019-03-27T17:23:17.088Z,101402.16
2019-03-27T17:25:36.220Z,101400.98
2019-03-27T17:28:07.392Z,101404.44
2019-03-27T17:30:38.361Z,101403.91
2019-03-27T17:33:09.573Z,101409.42
2019-03-27T17:35:40.700Z,101413.81
2019-03-27T17:38:11.680Z,101413.52
2019-03-27T17:40:42.869Z,101423.99
2019-03-27T17:43:14.136Z,101429.48
2019-03-27T17:45:45.264Z,101433.31
2019-03-27T17:48:16.464Z,101441.19
2019-03-27T17:50:47.663Z,101440.14
2019-03-27T17:53:31.125Z,101440.64
2019-03-27T17:55:51.515Z,101451.05
2019-03-27T17:58:22.539Z,101452.61
2019-03-27T18:01:00.244Z,101458.73
2019-03-27T18:03:31.546Z,101461.14
2019-03-27T18:06:02.758Z,101467.36
2019-03-27T18:08:34.920Z,101470.81
2019-03-27T18:11:08.112Z,101475.95
2019-03-27T18:13:38.732Z,101471.13
2019-03-27T18:16:09.818Z,101473.52
2019-03-27T18:18:41.318Z,101475.57
2019-03-27T18:21:14.985Z,101475.57
2019-03-27T18:23:46.799Z,101479.92
2019-03-27T18:26:18.430Z,101486.55
2019-03-27T18:28:49.583Z,101478.01
2019-03-27T18:31:20.659Z,101486.25
2019-03-27T18:33:53.707Z,101488.91
2019-03-27T18:36:24.850Z,101495.36
2019-03-27T18:38:55.880Z,101497.28
2019-03-27T18:41:27.964Z,101499.14
2019-03-27T18:43:59.044Z,101504.87
2019-03-27T18:46:30.577Z,101505.64
2019-03-27T18:49:01.672Z,101520.86
2019-03-27T18:51:32.654Z,101514.72
2019-03-27T18:54:03.944Z,101514.72
2019-03-27T18:56:35.156Z,101517.92
2019-03-27T18:59:06.064Z,101517.52
2019-03-27T19:01:37.301Z,101533.56
2019-03-27T19:04:08.594Z,101533.56
2019-03-27T19:06:39.875Z,101536.47
2019-03-27T19:09:11.423Z,101532.75
2019-03-27T19:11:42.490Z,101535.17
2019-03-27T19:14:13.551Z,101545.24
2019-03-27T19:16:44.861Z,101546.00
2019-03-27T19:19:15.851Z,101544.56
2019-03-27T19:21:47.745Z,101541.48
2019-03-27T19:24:18.589Z,101550.09
2019-03-27T19:26:49.540Z,101558.81
2019-03-27T19:29:20.667Z,101556.66
2019-03-27T19:31:51.928Z,101556.66
2019-03-27T19:34:22.903Z,101557.78
2019-03-27T19:36:53.895Z,101558.76
2019-03-27T19:39:24.784Z,101565.44
2019-03-27T19:41:55.673Z,101565.44
2019-03-27T19:44:26.650Z,101567.35
2019-03-27T19:46:58.110Z,101568.06
2019-03-27T19:49:29.189Z,101569.72
2019-03-27T19:52:00.526Z,101575.54
2019-03-27T19:54:31.560Z,101574.12
2019-03-27T19:57:02.462Z,101572.82
2019-03-27T19:59:33.327Z,101580.06
2019-03-27T20:02:04.258Z,101578.09
2019-03-27T20:04:35.827Z,101580.19
2019-03-27T20:07:06.691Z,101576.28
2019-03-27T20:09:37.542Z,101576.16
2019-03-27T20:12:08.566Z,101583.11
2019-03-27T20:14:42.328Z,101588.17
2019-03-27T20:17:11.867Z,101591.33
2019-03-27T20:19:43.151Z,101593.02
2019-03-27T20:22:15.604Z,101590.53
2019-03-27T20:24:46.323Z,101592.77
2019-03-27T20:27:17.240Z,101583.67
2019-03-27T20:29:47.768Z,101589.91
2019-03-27T20:32:18.371Z,101593.92
2019-03-27T20:34:51.058Z,101591.70
2019-03-27T20:37:21.714Z,101596.53
2019-03-27T20:39:52.330Z,101598.09
2019-03-27T20:42:23.218Z,101597.77
2019-03-27T20:44:53.767Z,101597.77
2019-03-27T20:47:25.173Z,101604.21
2019-03-27T20:49:56.119Z,101600.69
2019-03-27T20:52:27.068Z,101600.55
2019-03-27T20:54:57.720Z,101609.59
2019-03-27T20:57:28.506Z,101599.92
2019-03-27T20:59:59.226Z,101602.16
2019-03-27T21:02:29.893Z,101614.09
2019-03-27T21:05:00.774Z,101617.58
2019-03-27T21:07:31.576Z,101623.08
2019-03-27T21:10:02.762Z,101623.52
2019-03-27T21:12:33.779Z,101621.95
2019-03-27T21:15:05.032Z,101624.02
2019-03-27T21:17:36.060Z,101628.09
2019-03-27T21:20:07.834Z,101622.94
2019-03-27T21:22:39.684Z,101631.80
2019-03-27T21:25:11.402Z,101632.84
2019-03-27T21:27:43.828Z,101629.87
2019-03-27T21:30:15.168Z,101629.00
2019-03-27T21:32:46.126Z,101625.28
2019-03-27T21:35:17.197Z,101627.45
2019-03-27T21:37:48.064Z,101628.96
2019-03-27T21:40:19.453Z,101641.59
2019-03-27T21:42:51.532Z,101634.33
2019-03-27T21:45:22.745Z,101637.97
2019-03-27T21:47:53.606Z,101635.00
2019-03-27T21:50:24.459Z,101643.32
2019-03-27T21:53:00.824Z,101649.34
2019-03-27T21:55:41.910Z,101647.06
2019-03-27T21:58:01.783Z,101651.41
2019-03-27T22:00:41.004Z,101659.45
2019-03-27T22:03:12.040Z,101662.88
2019-03-27T22:05:42.985Z,101666.88
2019-03-27T22:08:13.978Z,101661.50
2019-03-27T22:10:44.884Z,101661.30
2019-03-27T22:13:15.866Z,101663.84
2019-03-27T22:15:46.808Z,101661.50
2019-03-27T22:18:19.045Z,101674.66
2019-03-27T22:20:50.214Z,101669.94
2019-03-27T22:23:21.120Z,101680.06
2019-03-27T22:25:52.055Z,101688.44
2019-03-27T22:28:22.992Z,101684.54
2019-03-27T22:30:54.514Z,101679.94
2019-03-27T22:33:25.357Z,101692.01
2019-03-27T22:35:56.294Z,101686.20
2019-03-27T22:38:27.057Z,101697.39
2019-03-27T22:40:58.363Z,101696.19
2019-03-27T22:43:29.265Z,101697.48
2019-03-27T22:45:59.990Z,101710.95
2019-03-27T22:48:31.080Z,101717.93
2019-03-27T22:51:02.021Z,101709.03
2019-03-27T22:53:32.810Z,101710.61
2019-03-27T22:56:03.921Z,101709.99
2019-03-27T22:58:34.696Z,101700.72
2019-03-27T23:01:05.678Z,101718.42
2019-03-27T23:03:36.496Z,101699.67
2019-03-27T23:06:07.429Z,101715.14
2019-03-27T23:09:30.840Z,101717.69
2019-03-27T23:12:01.713Z,101707.89
2019-03-27T23:14:32.732Z,101694.17
2019-03-27T23:17:03.706Z,101695.73
2019-03-27T23:19:34.729Z,101702.35
2019-03-27T23:22:05.785Z,101702.41
2019-03-27T23:24:37.617Z,101699.59
2019-03-27T23:27:08.590Z,101707.63
2019-03-27T23:29:40.980Z,101697.39
2019-03-27T23:32:12.082Z,101702.40
2019-03-27T23:34:43.090Z,101706.92
2019-03-27T23:37:14.077Z,101703.91
2019-03-27T23:39:46.252Z,101708.27
2019-03-27T23:42:17.189Z,101705.84
2019-03-27T23:44:48.225Z,101701.52
2019-03-27T23:47:19.003Z,101702.47
2019-03-27T23:49:50.298Z,101715.03
2019-03-27T23:52:21.110Z,101707.58
2019-03-27T23:54:51.917Z,101705.45
2019-03-27T23:57:22.703Z,101712.13
2019-03-27T23:59:53.580Z,101712.80
